Inversion Research: Above Escarpment

*Note: All times are displayed in the local standard time of the station location.
**Rain - Equipment is designed to accurately record liquid precipitation; under conditions when precipitation is not in liquid form, the data displayed may not properly reflect rainfall values.

Date Max Temp
(°C)
Min Temp
(°C)
Avg Temp
(°C)
Rain (mm) Avg RH (%)
Mon, Aug 20, 2018 25.9 15.3 21.0 - 93.0
Sun, Aug 19, 2018 24.6 14.6 19.5 - 92.1
Sat, Aug 18, 2018 23.1 16.3 20.6 - 92.1
Fri, Aug 17, 2018 28.8 21.9 23.9 - 95.9
Thu, Aug 16, 2018 29.8 19.9 24.7 - 86.6
Wed, Aug 15, 2018 31.2 19.1 24.9 - 79.2
Tue, Aug 14, 2018 30.4 19.7 24.4 - 75.3
DateTime Avg Temp (°C) Rain (mm) RH (%)
Tue, Aug 21, 2018 06:00 20.0 - 99.8
Tue, Aug 21, 2018 05:00 20.2 - 99.3
Tue, Aug 21, 2018 04:00 20.0 - 99.5
Tue, Aug 21, 2018 03:00 19.7 - 100.0
Tue, Aug 21, 2018 02:00 20.0 - 99.5
Tue, Aug 21, 2018 01:00 20.2 - 97.8
Tue, Aug 21, 2018 00:00 20.7 - 94.3
Mon, Aug 20, 2018 23:00 21.1 - 92.3
Mon, Aug 20, 2018 22:00 21.5 - 92.5
Mon, Aug 20, 2018 21:00 21.6 - 99.3
Mon, Aug 20, 2018 20:00 23.1 - 96.3
Mon, Aug 20, 2018 19:00 24.2 - 91.8
Mon, Aug 20, 2018 18:00 25.2 - 86.5
Mon, Aug 20, 2018 17:00 24.9 - 86.5
Mon, Aug 20, 2018 16:00 24.9 - 85.0
Mon, Aug 20, 2018 15:00 24.8 - 86.8
Mon, Aug 20, 2018 14:00 24.7 - 84.5
Mon, Aug 20, 2018 13:00 25.6 - 75.0
Mon, Aug 20, 2018 12:00 24.5 - 81.5
Mon, Aug 20, 2018 11:00 24.0 - 84.8
Mon, Aug 20, 2018 10:00 22.0 - 95.8
Mon, Aug 20, 2018 09:00 19.1 - 100.0
Mon, Aug 20, 2018 08:00 16.5 - 100.0
Mon, Aug 20, 2018 07:00 15.6 - 100.0
Mon, Aug 20, 2018 06:00 16.5 - 100.0
Mon, Aug 20, 2018 05:00 16.7 - 100.0
Mon, Aug 20, 2018 04:00 17.0 - 100.0
Mon, Aug 20, 2018 03:00 17.5 - 100.0
Mon, Aug 20, 2018 02:00 16.6 - 100.0
Mon, Aug 20, 2018 01:00 16.8 - 100.0
Mon, Aug 20, 2018 00:00 17.7 - 100.0
Sun, Aug 19, 2018 23:00 17.5 - 100.0
Sun, Aug 19, 2018 22:00 17.8 - 100.0
Sun, Aug 19, 2018 21:00 19.0 - 98.5
Sun, Aug 19, 2018 20:00 21.1 - 90.3
Sun, Aug 19, 2018 19:00 22.6 - 85.0
Sun, Aug 19, 2018 18:00 23.4 - 81.8
Sun, Aug 19, 2018 17:00 23.9 - 80.8
Sun, Aug 19, 2018 16:00 24.0 - 74.5
Sun, Aug 19, 2018 15:00 24.5 - 72.0
Sun, Aug 19, 2018 14:00 24.2 - 74.5
Sun, Aug 19, 2018 13:00 23.2 - 83.0
Sun, Aug 19, 2018 12:00 22.7 - 88.0
Sun, Aug 19, 2018 11:00 23.0 - 87.0
Sun, Aug 19, 2018 10:00 21.9 - 95.5
Sun, Aug 19, 2018 09:00 19.1 - 100.0
Sun, Aug 19, 2018 08:00 15.8 - 100.0
Sun, Aug 19, 2018 07:00 14.7 - 100.0


asterix Register now to access more data! asterix